createdAt,value
2018-11-20T00:00:33.770Z,33.97
2018-11-20T00:05:50.082Z,33.80
2018-11-20T00:11:06.389Z,33.50
2018-11-20T00:16:22.694Z,35.47
2018-11-20T00:21:39.034Z,32.00
2018-11-20T00:26:55.413Z,33.13
2018-11-20T00:32:12.010Z,37.20
2018-11-20T00:37:28.405Z,31.37
2018-11-20T00:42:44.725Z,32.53
2018-11-20T00:48:01.079Z,32.00
2018-11-20T00:53:17.438Z,29.73
2018-11-20T00:58:33.753Z,32.37
2018-11-20T01:03:50.085Z,29.73
2018-11-20T01:09:06.440Z,28.73
2018-11-20T01:14:22.813Z,31.70
2018-11-20T01:19:39.100Z,30.97
2018-11-20T01:24:55.447Z,36.67
2018-11-20T01:30:11.765Z,28.77
2018-11-20T01:35:28.044Z,27.63
2018-11-20T01:40:34.983Z,30.17
2018-11-20T01:45:51.301Z,28.10
2018-11-20T01:51:07.658Z,29.07
2018-11-20T01:56:23.938Z,32.63
2018-11-20T02:01:40.254Z,28.67
2018-11-20T02:06:56.561Z,28.53
2018-11-20T02:12:12.865Z,29.77
2018-11-20T02:17:48.367Z,36.03
2018-11-20T02:23:04.656Z,30.07
2018-11-20T02:33:34.445Z,31.60
2018-11-20T02:38:50.719Z,31.00
2018-11-20T02:44:07.309Z,29.63
2018-11-20T02:49:23.644Z,28.87
2018-11-20T02:54:39.945Z,30.70
2018-11-20T02:59:56.732Z,29.40
2018-11-20T03:05:13.062Z,32.47
2018-11-20T03:10:29.424Z,31.87
2018-11-20T03:15:45.733Z,33.33
2018-11-20T03:21:02.007Z,29.70
2018-11-20T03:26:20.069Z,30.70
2018-11-20T03:31:35.787Z,33.90
2018-11-20T03:36:52.093Z,33.80
2018-11-20T03:42:08.409Z,34.93
2018-11-20T03:47:24.701Z,31.20
2018-11-20T03:52:41.028Z,31.33
2018-11-20T03:57:57.442Z,34.40
2018-11-20T04:03:13.777Z,33.03
2018-11-20T04:08:30.076Z,29.90
2018-11-20T04:13:46.718Z,32.57
2018-11-20T04:19:03.038Z,29.20
2018-11-20T04:24:19.369Z,33.70
2018-11-20T04:29:35.692Z,32.90
2018-11-20T04:34:52.069Z,32.47
2018-11-20T04:40:08.702Z,28.93
2018-11-20T04:45:25.162Z,30.47
2018-11-20T04:50:32.315Z,32.20
2018-11-20T04:55:48.605Z,30.73
2018-11-20T05:01:04.915Z,31.00
2018-11-20T05:06:21.229Z,29.33
2018-11-20T05:11:37.530Z,30.23
2018-11-20T05:16:53.850Z,29.70
2018-11-20T05:22:10.134Z,30.23
2018-11-20T05:27:26.549Z,28.17
2018-11-20T05:32:42.846Z,27.13
2018-11-20T05:37:59.136Z,26.13
2018-11-20T05:43:15.434Z,38.13
2018-11-20T05:48:31.756Z,30.73
2018-11-20T05:53:48.388Z,27.80
2018-11-20T05:59:04.687Z,23.30
2018-11-20T06:04:20.993Z,25.00
2018-11-20T06:09:27.164Z,22.27
2018-11-20T06:14:43.537Z,26.10
2018-11-20T06:19:59.857Z,23.27
2018-11-20T06:25:16.184Z,27.23
2018-11-20T06:30:32.552Z,24.50
2018-11-20T06:35:48.873Z,23.67
2018-11-20T06:41:05.245Z,22.63
2018-11-20T06:46:21.625Z,25.10
2018-11-20T06:51:37.907Z,23.23
2018-11-20T06:56:54.289Z,21.97
2018-11-20T07:02:10.625Z,22.13
2018-11-20T07:07:27.256Z,22.37
2018-11-20T07:12:43.549Z,22.37
2018-11-20T07:17:59.876Z,20.47
2018-11-20T07:23:16.204Z,18.40
2018-11-20T07:28:32.517Z,18.90
2018-11-20T07:33:48.808Z,17.13
2018-11-20T07:39:05.167Z,18.50
2018-11-20T07:44:13.654Z,18.27
2018-11-20T07:49:29.982Z,20.67
2018-11-20T07:54:46.273Z,18.83
2018-11-20T08:00:21.724Z,20.47
2018-11-20T08:05:39.863Z,18.83
2018-11-20T08:10:56.214Z,18.27
2018-11-20T08:16:02.051Z,19.23
2018-11-20T08:21:18.236Z,21.03
2018-11-20T08:26:34.572Z,22.20
2018-11-20T08:31:50.858Z,19.97
2018-11-20T08:37:07.194Z,18.37
2018-11-20T08:42:23.587Z,21.67
2018-11-20T08:47:39.888Z,20.43
2018-11-20T08:52:45.640Z,22.30
2018-11-20T08:58:02.095Z,24.83
2018-11-20T09:03:17.674Z,22.93
2018-11-20T09:08:33.817Z,21.43
2018-11-20T09:13:50.167Z,17.50
2018-11-20T09:18:58.271Z,16.67
2018-11-20T09:24:14.656Z,15.83
2018-11-20T09:29:30.998Z,15.37
2018-11-20T09:35:06.663Z,14.60
2018-11-20T09:40:41.913Z,12.23
2018-11-20T09:46:17.368Z,12.37
2018-11-20T09:51:32.233Z,11.33
2018-11-20T09:56:48.590Z,10.23
2018-11-20T10:02:04.864Z,10.67
2018-11-20T10:07:21.288Z,13.80
2018-11-20T10:12:37.520Z,9.93
2018-11-20T10:17:53.801Z,11.23
2018-11-20T10:23:10.106Z,10.47
2018-11-20T10:28:26.632Z,11.53
2018-11-20T10:33:42.928Z,10.37
2018-11-20T10:38:59.239Z,11.57
2018-11-20T10:44:15.524Z,10.13
2018-11-20T10:49:25.022Z,10.40
2018-11-20T10:54:41.531Z,12.00
2018-11-20T10:59:57.807Z,11.63
2018-11-20T11:05:14.324Z,14.03
2018-11-20T11:10:16.052Z,12.60
2018-11-20T11:15:32.377Z,12.43
2018-11-20T11:20:48.806Z,11.77
2018-11-20T11:26:05.117Z,13.23
2018-11-20T11:31:21.738Z,13.43
2018-11-20T11:36:38.060Z,13.43
2018-11-20T11:41:54.421Z,13.80
2018-11-20T11:47:10.709Z,14.53
2018-11-20T11:52:27.017Z,14.80
2018-11-20T11:57:43.356Z,12.93
2018-11-20T12:08:15.588Z,13.80
2018-11-20T12:13:31.899Z,13.70
2018-11-20T12:18:48.217Z,11.90
2018-11-20T12:24:04.575Z,12.23
2018-11-20T12:29:20.868Z,12.37
2018-11-20T12:34:37.586Z,10.87
2018-11-20T12:39:53.434Z,11.17
2018-11-20T12:45:09.758Z,12.00
2018-11-20T12:50:26.254Z,8.77
2018-11-20T12:55:42.500Z,10.50
2018-11-20T13:00:59.261Z,8.63
2018-11-20T13:06:15.069Z,8.43
2018-11-20T13:11:31.457Z,8.93
2018-11-20T13:16:47.793Z,7.47
2018-11-20T13:22:04.435Z,8.67
2018-11-20T13:27:39.918Z,7.90
2018-11-20T13:32:56.214Z,8.93
2018-11-20T13:38:13.774Z,8.97
2018-11-20T13:43:28.923Z,10.60
2018-11-20T13:48:45.742Z,8.53
2018-11-20T13:54:01.917Z,7.20
2018-11-20T13:59:18.252Z,7.93
2018-11-20T14:04:34.563Z,7.67
2018-11-20T14:09:52.363Z,8.43
2018-11-20T14:15:09.006Z,8.43
2018-11-20T14:20:08.324Z,7.27
2018-11-20T14:25:27.947Z,7.97
2018-11-20T14:30:44.291Z,9.33
2018-11-20T14:36:00.994Z,8.43
2018-11-20T14:41:17.269Z,9.50
2018-11-20T14:46:33.616Z,9.17
2018-11-20T14:51:49.935Z,10.70
2018-11-20T14:57:06.227Z,10.57
2018-11-20T15:02:22.587Z,14.03
2018-11-20T15:07:39.182Z,11.07
2018-11-20T15:12:55.558Z,12.57
2018-11-20T15:18:11.910Z,12.67
2018-11-20T15:23:28.206Z,13.00
2018-11-20T15:28:44.501Z,14.50
2018-11-20T15:34:00.798Z,14.30
2018-11-20T15:39:17.137Z,13.23
2018-11-20T15:44:33.441Z,15.03
2018-11-20T15:49:49.716Z,13.87
2018-11-20T15:55:52.900Z,13.23
2018-11-20T16:01:09.088Z,14.67
2018-11-20T16:06:25.002Z,14.03
2018-11-20T16:11:40.979Z,17.47
2018-11-20T16:16:56.939Z,18.97
2018-11-20T16:22:12.865Z,15.97
2018-11-20T16:27:29.116Z,17.20
2018-11-20T16:32:45.075Z,20.07
2018-11-20T16:43:22.846Z,18.67
2018-11-20T16:48:38.780Z,16.17
2018-11-20T16:53:54.726Z,18.57
2018-11-20T16:59:10.673Z,16.63
2018-11-20T17:04:26.598Z,20.80
2018-11-20T17:09:42.486Z,21.63
2018-11-20T17:14:58.418Z,21.00
2018-11-20T17:20:14.386Z,17.83
2018-11-20T17:25:30.309Z,18.03
2018-11-20T17:30:46.236Z,18.80
2018-11-20T17:36:02.202Z,16.90
2018-11-20T17:41:17.336Z,20.90
2018-11-20T17:46:31.969Z,22.47
2018-11-20T17:51:47.921Z,20.40
2018-11-20T17:57:03.885Z,20.17
2018-11-20T18:02:10.849Z,22.23
2018-11-20T18:07:29.798Z,19.67
2018-11-20T18:12:55.584Z,21.23
2018-11-20T18:18:10.358Z,21.43
2018-11-20T18:23:24.836Z,20.27
2018-11-20T18:28:52.134Z,22.77
2018-11-20T18:34:03.613Z,22.20
2018-11-20T18:39:21.705Z,21.63
2018-11-20T18:44:36.566Z,24.30
2018-11-20T18:49:59.107Z,21.90
2018-11-20T18:55:13.663Z,22.53
2018-11-20T19:00:26.229Z,20.77
2018-11-20T19:06:00.625Z,25.27
2018-11-20T19:11:25.882Z,18.67
2018-11-20T19:16:40.757Z,19.70
2018-11-20T19:21:56.710Z,19.13
2018-11-20T19:27:11.349Z,24.03
2018-11-20T19:32:26.230Z,22.87
2018-11-20T19:37:57.443Z,19.07
2018-11-20T19:43:15.983Z,20.33
2018-11-20T19:48:30.645Z,20.67
2018-11-20T19:53:45.127Z,22.13
2018-11-20T19:59:13.118Z,24.40
2018-11-20T20:04:44.002Z,21.70
2018-11-20T20:09:59.986Z,22.03
2018-11-20T20:15:19.489Z,30.03
2018-11-20T20:20:54.363Z,26.53
2018-11-20T20:26:22.350Z,27.73
2018-11-20T20:31:40.878Z,24.40
2018-11-20T20:36:55.433Z,29.10
2018-11-20T20:42:01.410Z,22.63
2018-11-20T20:47:35.461Z,25.73
2018-11-20T20:52:50.253Z,20.80
2018-11-20T20:57:55.190Z,24.30
2018-11-20T21:03:10.222Z,25.17
2018-11-20T21:08:24.248Z,25.80
2018-11-20T21:13:55.400Z,26.43
2018-11-20T21:19:04.357Z,27.93
2018-11-20T21:24:22.938Z,31.53
2018-11-20T21:29:47.107Z,28.90
2018-11-20T21:35:01.936Z,26.37
2018-11-20T21:40:16.963Z,26.20
2018-11-20T21:45:29.451Z,25.23
2018-11-20T21:50:46.969Z,26.90
2018-11-20T21:56:02.150Z,25.77
2018-11-20T22:01:18.811Z,29.20
2018-11-20T22:06:33.516Z,29.37
2018-11-20T22:11:47.955Z,27.37
2018-11-20T22:17:06.496Z,27.13
2018-11-20T22:22:23.034Z,25.57
2018-11-20T22:27:57.315Z,28.03
2018-11-20T22:33:25.476Z,29.53
2018-11-20T22:38:30.078Z,26.67
2018-11-20T22:43:35.956Z,28.07
2018-11-20T22:49:03.875Z,26.50
2018-11-20T22:54:22.440Z,29.50
2018-11-20T22:59:50.598Z,31.53
2018-11-20T23:05:15.269Z,32.30
2018-11-20T23:10:12.548Z,28.93
2018-11-20T23:15:09.843Z,29.57
2018-11-20T23:20:06.822Z,28.27
2018-11-20T23:25:03.268Z,29.43
2018-11-20T23:30:00.056Z,27.93
2018-11-20T23:34:56.720Z,26.13
2018-11-20T23:39:53.674Z,28.90
2018-11-20T23:44:50.100Z,24.87
2018-11-20T23:49:46.475Z,24.87
2018-11-20T23:54:43.017Z,23.00
2018-11-20T23:59:39.401Z,21.43
